Time;durP1;ratioP1;P1;durP2;ratioP2;P2;SDS_P1;SDS_P2;PMS_P1;PMS_P2;Temp;Humidity;BMP_temperature;BMP_pressure;BME280_temperature;BME280_humidity;BME280_pressure;Samples;Min_cycle;Max_cycle;Signal;HPM_P1;HPM_P2
2022/03/18 00:11:51;;;;;;;7.03;4.90;;;;;;;2.08;49.30;101235.25;6333536;22;20062;-86
2022/03/18 00:14:19;;;;;;;8.77;5.17;;;;;;;1.65;49.40;101098.72;6336007;22;19998;-87
2022/03/18 00:16:46;;;;;;;9.23;5.73;;;;;;;1.46;49.83;101128.31;6310108;22;20000;-87
2022/03/18 00:22:01;;;;;;;9.37;5.57;;;;;;;1.34;49.87;101076.91;6334635;22;20098;-87
2022/03/18 00:24:33;;;;;;;8.45;6.45;;;;;;;1.61;49.51;101150.09;6311122;22;19999;-85
2022/03/18 00:27:03;;;;;;;9.13;5.90;;;;;;;1.13;49.85;101091.88;6309771;22;19987;-84
2022/03/18 00:29:31;;;;;;;9.20;5.73;;;;;;;1.55;49.62;101153.88;6336312;22;19995;-86
2022/03/18 00:31:56;;;;;;;8.60;5.30;;;;;;;1.74;49.89;101142.47;6336513;22;19987;-86
2022/03/18 00:34:22;;;;;;;6.47;4.57;;;;;;;1.37;49.58;101065.50;6336579;22;20014;-86
2022/03/18 00:36:48;;;;;;;8.17;4.97;;;;;;;1.51;49.89;101135.91;6336448;22;19991;-87
2022/03/18 00:39:14;;;;;;;6.00;4.57;;;;;;;1.44;49.64;101079.84;6335877;22;20022;-87
2022/03/18 00:41:41;;;;;;;9.87;5.97;;;;;;;3.23;50.14;101394.16;6336141;22;19983;-88
2022/03/18 00:44:06;;;;;;;7.17;5.20;;;;;;;1.22;49.61;101054.97;6335617;22;20042;-85
2022/03/18 00:46:32;;;;;;;9.40;5.40;;;;;;;2.29;49.89;101306.25;6336433;22;19999;-87
2022/03/18 00:54:22;;;;;;;7.07;5.40;;;;;;;1.69;49.51;101187.00;6335882;22;20019;-84
2022/03/18 00:56:48;;;;;;;9.03;5.07;;;;;;;2.36;49.23;101312.84;6309724;22;20022;-84
2022/03/18 01:09:58;;;;;;;12.73;6.93;;;;;;;1.21;49.06;101127.91;6341826;22;20018;-85
2022/03/18 01:12:26;;;;;;;10.03;6.63;;;;;;;1.24;49.07;101159.81;6338129;22;19991;-83
2022/03/18 01:14:52;;;;;;;12.63;6.27;;;;;;;1.02;49.15;101063.00;6337896;22;19988;-83
2022/03/18 01:17:18;;;;;;;10.63;6.13;;;;;;;2.02;49.26;101304.16;6337574;22;19988;-84
2022/03/18 01:19:43;;;;;;;8.87;6.30;;;;;;;4.05;49.02;101641.16;6337871;22;20039;-85
2022/03/18 01:22:09;;;;;;;8.50;5.80;;;;;;;1.28;49.02;101192.56;6338062;22;20009;-85
2022/03/18 02:42:18;;;;;;;14.47;8.30;;;;;;;2.62;50.36;101502.63;6318588;22;20018;-86
2022/03/18 07:51:57;;;;;;;9.90;7.20;;;;;;;2.01;35.16;101502.22;6336037;22;20063;-82
2022/03/18 07:55:07;;;;;;;9.80;7.60;;;;;;;2.00;35.62;101456.25;6335480;22;20014;-85
2022/03/18 08:06:13;;;;;;;14.30;8.73;;;;;;;3.27;33.92;101594.06;6336046;22;20011;-87
2022/03/18 08:08:39;;;;;;;11.07;7.60;;;;;;;1.58;34.26;101338.53;6309825;22;20046;-86
2022/03/18 08:11:04;;;;;;;10.67;7.30;;;;;;;3.45;34.52;101624.41;6336494;22;20003;-85
2022/03/18 08:13:30;;;;;;;9.87;7.93;;;;;;;1.92;34.58;101409.75;6335646;22;19984;-87
2022/03/18 08:15:56;;;;;;;8.83;6.70;;;;;;;3.14;34.78;101606.91;6334468;22;19983;-87
2022/03/18 08:18:21;;;;;;;7.67;6.23;;;;;;;2.93;34.36;101488.81;6302962;22;19999;-87
2022/03/18 08:20:53;;;;;;;11.87;7.17;;;;;;;3.98;34.44;101683.41;6296252;22;19999;-89
2022/03/18 08:23:19;;;;;;;12.43;7.35;;;;;;;4.76;34.50;101822.06;6321434;22;19991;-87
2022/03/18 08:25:44;;;;;;;10.70;6.67;;;;;;;3.77;34.24;101634.00;6308145;22;20014;-88
2022/03/18 08:28:10;;;;;;;14.13;10.30;;;;;;;4.02;34.49;101612.59;6305847;22;20004;-88
2022/03/18 08:30:37;;;;;;;9.20;7.27;;;;;;;4.33;33.98;101700.59;6278868;22;20450;-89
2022/03/18 08:33:03;;;;;;;11.50;8.87;;;;;;;4.34;34.32;101697.06;6305434;22;20006;-90
2022/03/18 08:35:30;;;;;;;9.37;6.23;;;;;;;4.20;33.43;101644.69;6305422;22;19995;-90
2022/03/18 08:37:58;;;;;;;8.13;6.07;;;;;;;4.02;33.17;101620.44;6278623;22;19995;-89
2022/03/18 08:40:23;;;;;;;9.13;6.00;;;;;;;5.41;33.43;101845.47;6306422;22;19999;-89
2022/03/18 08:42:49;;;;;;;9.87;6.63;;;;;;;4.72;33.32;101725.50;6278106;22;20052;-91
2022/03/18 08:45:16;;;;;;;8.00;5.30;;;;;;;5.15;33.46;101770.16;6304328;22;19995;-90
2022/03/18 08:47:41;;;;;;;7.57;6.37;;;;;;;5.50;33.68;101789.06;6277704;22;20082;-90
2022/03/18 08:50:07;;;;;;;8.47;6.43;;;;;;;4.21;33.24;101567.94;6277715;22;20027;-91
2022/03/18 08:52:33;;;;;;;9.93;6.10;;;;;;;4.81;33.07;101630.75;6303132;22;20648;-92
2022/03/18 08:54:58;;;;;;;7.43;6.03;;;;;;;4.70;32.49;101607.00;6304093;22;20003;-90
2022/03/18 08:57:24;;;;;;;6.80;5.77;;;;;;;6.13;32.42;101834.22;6277596;22;20069;-90
2022/03/18 08:59:50;;;;;;;9.97;5.77;;;;;;;4.97;32.09;101635.91;6277085;22;19992;-89
2022/03/18 09:02:15;;;;;;;7.97;6.03;;;;;;;5.69;32.29;101769.53;6277531;22;20007;-90
2022/03/18 09:04:42;;;;;;;7.20;5.53;;;;;;;5.23;31.86;101656.19;6277404;22;20030;-90
2022/03/18 09:07:08;;;;;;;8.77;5.60;;;;;;;5.98;31.68;101767.00;6277633;22;20019;-90
2022/03/18 09:09:33;;;;;;;9.33;6.67;;;;;;;6.37;31.91;101826.63;6305164;22;20137;-89
2022/03/18 09:11:59;;;;;;;9.80;6.87;;;;;;;5.09;31.38;101582.81;6277443;22;20007;-89
2022/03/18 09:14:24;;;;;;;6.47;5.60;;;;;;;4.88;31.00;101529.16;6277633;22;20003;-91
2022/03/18 09:16:49;;;;;;;8.70;5.88;;;;;;;6.21;30.72;101710.47;6274241;22;20003;-89
2022/03/18 09:19:16;;;;;;;6.75;5.30;;;;;;;7.06;31.09;101814.41;6276653;22;20010;-89
2022/03/18 09:21:41;;;;;;;6.57;5.73;;;;;;;6.56;30.83;101709.06;6276618;22;20003;-89
2022/03/18 09:24:07;;;;;;;8.52;5.35;;;;;;;6.96;30.36;101757.22;6276956;22;19999;-89
2022/03/18 09:26:32;;;;;;;8.90;6.77;;;;;;;7.20;30.50;101783.66;6304849;22;20031;-89
2022/03/18 09:28:58;;;;;;;7.32;5.50;;;;;;;6.67;30.51;101664.59;6278813;22;19999;-89
2022/03/18 09:31:23;;;;;;;6.07;5.43;;;;;;;7.15;30.02;101714.81;6306770;22;20000;-90
2022/03/18 09:33:49;;;;;;;7.88;6.13;;;;;;;7.19;30.08;101686.56;6306361;22;20767;-89
2022/03/18 09:36:18;;;;;;;7.10;5.80;;;;;;;7.59;29.69;101738.09;6278650;22;19999;-88
2022/03/18 09:38:45;;;;;;;6.00;5.25;;;;;;;7.48;29.37;101703.84;6279276;22;19991;-90
2022/03/18 09:41:11;;;;;;;7.78;4.75;;;;;;;8.16;28.80;101794.66;6279295;22;19999;-89
2022/03/18 09:43:38;;;;;;;5.43;4.93;;;;;;;7.93;28.27;101731.34;6278030;22;20003;-88
2022/03/18 09:46:06;;;;;;;6.78;5.22;;;;;;;8.45;28.11;101806.69;6277110;22;20448;-88
2022/03/18 09:48:32;;;;;;;7.82;4.95;;;;;;;8.12;27.62;101717.75;6277865;22;19995;-89
2022/03/18 09:50:58;;;;;;;6.25;5.15;;;;;;;8.66;27.48;101793.75;6278247;22;20094;-89
2022/03/18 09:53:24;;;;;;;7.15;5.53;;;;;;;8.79;27.19;101804.25;6304182;22;19999;-87
2022/03/18 09:55:51;;;;;;;8.63;5.13;;;;;;;8.02;27.02;101634.31;6277925;22;20025;-88
2022/03/18 09:58:21;;;;;;;9.88;5.93;;;;;;;8.52;27.38;101709.66;6305465;22;19992;-88
2022/03/18 10:00:47;;;;;;;7.75;6.05;;;;;;;8.99;27.21;101752.78;6278671;22;20002;-88
2022/03/18 10:03:16;;;;;;;8.90;5.22;;;;;;;8.95;26.71;101712.63;6278554;22;20003;-89
2022/03/18 10:05:59;;;;;;;6.80;5.68;;;;;;;9.29;24.64;101732.03;6278056;22;20074;-88
2022/03/18 10:08:44;;;;;;;10.45;6.82;;;;;;;9.66;26.36;101761.72;6278663;22;20052;-88
2022/03/18 10:11:25;;;;;;;6.60;5.18;;;;;;;9.59;25.71;101712.16;6278471;22;19999;-88
2022/03/18 10:14:07;;;;;;;7.25;5.88;;;;;;;10.02;25.72;101783.56;6277619;22;20007;-87
2022/03/18 10:16:41;;;;;;;6.85;6.05;;;;;;;10.08;25.80;101783.94;6278253;22;20046;-88
2022/03/18 10:19:18;;;;;;;8.13;5.97;;;;;;;9.51;25.13;101692.50;6305883;22;20488;-89
2022/03/18 10:21:56;;;;;;;8.48;6.95;;;;;;;9.77;26.14;101656.22;6277945;22;20022;-90
2022/03/18 10:24:27;;;;;;;8.38;6.53;;;;;;;10.60;24.58;101769.28;6278977;22;19999;-88
2022/03/18 10:27:14;;;;;;;7.50;6.28;;;;;;;10.71;23.35;101766.63;6278387;22;20494;-89
2022/03/18 10:29:53;;;;;;;7.57;5.35;;;;;;;10.78;24.72;101770.44;6275836;22;20007;-88
2022/03/18 10:32:21;;;;;;;8.82;6.45;;;;;;;10.98;25.45;101766.16;6278623;22;19999;-88
2022/03/18 10:37:53;;;;;;;7.50;5.72;;;;;;;11.06;24.12;101723.22;6306358;22;20038;-88
2022/03/18 10:40:36;;;;;;;7.90;6.05;;;;;;;11.00;23.06;101677.00;6278689;22;19996;-88
2022/03/18 10:43:04;;;;;;;8.02;5.93;;;;;;;11.51;24.34;101752.09;6279048;22;20003;-88
2022/03/18 10:45:29;;;;;;;7.30;5.80;;;;;;;11.40;24.52;101721.25;6279119;22;19999;-88
2022/03/18 10:48:11;;;;;;;6.85;5.70;;;;;;;11.39;22.84;101749.53;6306200;22;20083;-88
2022/03/18 10:50:38;;;;;;;7.45;6.70;;;;;;;11.42;24.11;101762.47;6305967;22;20076;-88
2022/03/18 10:53:07;;;;;;;6.97;6.28;;;;;;;11.36;23.80;101748.94;6306759;22;19999;-88
2022/03/18 10:55:36;;;;;;;8.32;6.78;;;;;;;11.58;23.22;101738.22;6278490;22;20013;-88
2022/03/18 10:58:06;;;;;;;7.15;5.63;;;;;;;11.94;23.98;101747.50;6276482;22;20007;-88
2022/03/18 11:00:37;;;;;;;6.50;5.47;;;;;;;11.21;22.82;101604.81;6303890;22;20005;-88
2022/03/18 11:03:04;;;;;;;6.13;5.53;;;;;;;11.15;22.58;101651.09;6274393;22;20003;-88
2022/03/18 11:05:34;;;;;;;7.68;6.03;;;;;;;11.87;23.00;101737.56;6277742;22;20019;-88
2022/03/18 11:08:02;;;;;;;7.63;6.90;;;;;;;12.19;23.04;101734.78;6277909;22;20349;-87
2022/03/18 11:13:14;;;;;;;7.75;5.97;;;;;;;12.44;22.70;101731.63;6304551;22;20112;-87
2022/03/18 11:15:43;;;;;;;7.20;6.30;;;;;;;12.09;23.02;101661.44;6276865;22;20013;-87
2022/03/18 11:18:11;;;;;;;6.70;5.43;;;;;;;11.40;23.26;101621.59;6305823;22;20014;-88
2022/03/18 11:20:42;;;;;;;6.95;5.38;;;;;;;12.10;23.04;101702.00;6305479;22;20002;-88
2022/03/18 11:23:14;;;;;;;7.70;6.18;;;;;;;12.56;23.03;101737.63;6305028;22;20501;-87
2022/03/18 11:25:40;;;;;;;7.43;5.70;;;;;;;11.87;23.49;101661.63;6276528;22;20397;-87
2022/03/18 11:28:06;;;;;;;7.55;5.68;;;;;;;11.47;23.67;101680.09;6275269;22;20448;-87
2022/03/18 11:30:38;;;;;;;6.68;6.07;;;;;;;11.14;23.90;101700.47;6277332;22;19999;-88
2022/03/18 11:33:23;;;;;;;8.23;6.05;;;;;;;11.70;23.61;101737.16;6277708;22;20026;-88
2022/03/18 11:35:49;;;;;;;8.88;6.22;;;;;;;11.88;23.43;101724.19;6276796;22;20003;-88
2022/03/18 11:38:25;;;;;;;7.18;5.25;;;;;;;11.97;23.17;101689.00;6305360;22;20255;-87
2022/03/18 11:40:51;;;;;;;6.30;5.70;;;;;;;11.93;23.24;101644.41;6304426;22;20010;-87
2022/03/18 11:43:33;;;;;;;8.00;5.93;;;;;;;12.26;21.85;101710.25;6277335;22;20003;-87
2022/03/18 11:46:15;;;;;;;7.72;5.47;;;;;;;12.24;22.32;101704.25;6277575;22;20029;-87
2022/03/18 11:48:56;;;;;;;7.47;5.18;;;;;;;12.13;23.14;101679.69;6304883;22;20010;-87
2022/03/18 11:51:42;;;;;;;7.00;4.40;;;;;;;12.20;22.65;101694.91;6303068;22;19995;-87
2022/03/18 11:54:13;;;;;;;10.02;6.07;;;;;;;12.11;22.94;101705.47;6304376;22;19999;-86
2022/03/18 11:56:47;;;;;;;6.00;5.20;;;;;;;11.91;20.25;101696.63;6276781;22;20053;-88
2022/03/18 11:59:28;;;;;;;6.20;4.93;;;;;;;11.91;21.84;101683.41;6304742;22;20052;-89
2022/03/18 12:01:59;;;;;;;7.68;5.43;;;;;;;11.67;22.90;101694.25;6276289;22;20009;-88
2022/03/18 12:04:38;;;;;;;7.30;5.95;;;;;;;11.70;23.37;101691.34;6275180;22;20007;-86
2022/03/18 12:07:32;;;;;;;9.88;6.70;;;;;;;10.38;22.49;101486.75;6275598;22;20019;-89
2022/03/18 12:10:06;;;;;;;6.78;6.03;;;;;;;11.87;22.31;101698.69;6302368;22;20005;-87
2022/03/18 12:12:42;;;;;;;14.45;4.95;;;;;;;11.77;21.68;101671.31;6304725;22;19999;-87
2022/03/18 12:15:16;;;;;;;8.35;6.72;;;;;;;11.20;22.87;101589.91;6304268;22;20026;-87
2022/03/18 12:17:48;;;;;;;5.75;4.85;;;;;;;11.64;22.95;101687.41;6278018;22;20049;-87
2022/03/18 12:20:18;;;;;;;7.43;5.03;;;;;;;11.40;22.20;101671.84;6277542;22;19995;-87
2022/03/18 12:22:45;;;;;;;5.30;4.32;;;;;;;11.02;23.70;101616.06;6277997;22;20511;-87
2022/03/18 12:25:11;;;;;;;6.40;4.43;;;;;;;10.65;23.01;101554.94;6276949;22;20064;-87
2022/03/18 12:27:39;;;;;;;6.07;5.38;;;;;;;11.28;23.09;101675.53;6276197;22;20003;-87
2022/03/18 12:30:08;;;;;;;7.45;5.32;;;;;;;11.11;23.21;101657.59;6303208;22;20098;-87
2022/03/18 12:32:37;;;;;;;7.47;5.20;;;;;;;11.23;22.64;101671.63;6303844;22;20010;-87
2022/03/18 12:35:04;;;;;;;7.03;5.43;;;;;;;10.82;23.22;101631.81;6275097;22;20078;-87
2022/03/18 12:37:31;;;;;;;8.57;6.47;;;;;;;10.84;23.96;101671.31;6276813;22;19999;-87
2022/03/18 12:40:14;;;;;;;5.22;4.38;;;;;;;10.54;22.80;101629.78;6275234;22;20001;-87
2022/03/18 12:42:46;;;;;;;7.28;4.80;;;;;;;10.64;22.75;101661.56;6276364;22;20357;-87
2022/03/18 12:45:12;;;;;;;8.15;5.82;;;;;;;10.35;24.15;101630.44;6275193;22;19999;-86
2022/03/18 12:47:38;;;;;;;7.13;5.53;;;;;;;9.61;23.84;101523.00;6276145;22;20436;-87
2022/03/18 12:50:04;;;;;;;8.35;5.70;;;;;;;9.85;23.93;101565.91;6304630;22;20014;-87
2022/03/18 12:52:30;;;;;;;6.97;5.18;;;;;;;9.84;23.79;101569.50;6304386;22;20051;-88
2022/03/18 12:55:05;;;;;;;6.35;4.47;;;;;;;9.72;23.40;101541.47;6304185;22;19999;-88
2022/03/18 12:57:39;;;;;;;6.47;4.40;;;;;;;9.77;23.13;101547.22;6276604;22;19995;-87
2022/03/18 13:00:08;;;;;;;7.65;5.22;;;;;;;10.12;23.46;101613.81;6277312;22;20003;-87
2022/03/18 13:02:34;;;;;;;5.55;4.25;;;;;;;10.35;24.07;101633.06;6278144;22;20359;-88
2022/03/18 13:05:01;;;;;;;7.00;5.78;;;;;;;10.50;24.02;101642.41;6277672;22;20094;-88
2022/03/18 13:07:29;;;;;;;10.27;6.50;;;;;;;10.30;24.03;101605.38;6302785;22;20463;-88
2022/03/18 13:09:55;;;;;;;11.07;6.55;;;;;;;9.79;24.22;101506.56;6304027;22;19999;-87
2022/03/18 13:12:27;;;;;;;7.88;5.18;;;;;;;10.65;23.68;101611.25;6277881;22;20007;-88
2022/03/18 13:14:54;;;;;;;7.68;5.70;;;;;;;10.32;24.02;101584.97;6278286;22;20093;-87
2022/03/18 13:17:37;;;;;;;6.78;5.63;;;;;;;10.00;21.67;101501.31;6276623;22;20003;-88
2022/03/18 13:20:03;;;;;;;6.93;4.60;;;;;;;10.01;24.04;101524.09;6306120;22;19991;-88
2022/03/18 13:22:28;;;;;;;7.30;4.85;;;;;;;10.13;23.54;101498.50;6278647;22;19996;-88
2022/03/18 13:24:58;;;;;;;6.13;4.43;;;;;;;10.56;23.54;101566.28;6278132;22;20010;-87
2022/03/18 13:27:24;;;;;;;7.28;6.03;;;;;;;10.90;23.68;101586.25;6276831;22;20003;-86
2022/03/18 13:32:50;;;;;;;5.43;4.70;;;;;;;11.20;23.28;101619.00;6303969;22;20026;-86
2022/03/18 13:35:16;;;;;;;9.90;6.97;;;;;;;10.88;23.58;101579.41;6305087;22;20380;-87
2022/03/18 13:37:42;;;;;;;6.07;4.82;;;;;;;10.83;22.91;101582.44;6278537;22;20056;-87
2022/03/18 13:40:15;;;;;;;6.82;6.10;;;;;;;11.11;22.22;101623.22;6306091;22;19995;-87
2022/03/18 13:42:42;;;;;;;6.20;5.25;;;;;;;10.49;23.18;101555.38;6306366;22;20447;-87
2022/03/18 13:45:21;;;;;;;7.32;5.00;;;;;;;10.73;22.80;101552.47;6306747;22;20407;-87
2022/03/18 13:47:47;;;;;;;6.78;5.65;;;;;;;10.68;22.89;101559.97;6279307;22;20030;-88
2022/03/18 13:50:17;;;;;;;6.55;5.32;;;;;;;10.49;22.93;101513.97;6278210;22;20011;-87
2022/03/18 13:52:44;;;;;;;6.65;5.00;;;;;;;10.66;23.02;101517.81;6305827;22;19996;-87
2022/03/18 13:55:27;;;;;;;6.78;5.82;;;;;;;11.36;23.20;101612.25;6278561;22;20029;-87
2022/03/18 13:57:52;;;;;;;7.53;5.70;;;;;;;11.20;22.86;101529.09;6277096;22;20461;-87
2022/03/18 14:00:29;;;;;;;5.90;4.40;;;;;;;11.03;22.10;101506.72;6306334;22;20070;-88
2022/03/18 14:03:15;;;;;;;6.30;5.32;;;;;;;12.05;20.56;101622.13;6278851;22;19999;-87
2022/03/18 14:05:44;;;;;;;5.80;5.07;;;;;;;12.06;22.28;101621.16;6278037;22;20094;-87
2022/03/18 14:08:10;;;;;;;7.72;5.63;;;;;;;11.32;21.93;101488.34;6279019;22;19999;-87
2022/03/18 14:10:45;;;;;;;7.72;5.93;;;;;;;11.85;22.07;101565.63;6305546;22;19995;-86
2022/03/18 14:13:13;;;;;;;6.15;5.10;;;;;;;11.42;21.47;101476.00;6305993;22;19999;-87
2022/03/18 14:15:47;;;;;;;7.90;6.45;;;;;;;11.68;21.38;101551.22;6277863;22;20003;-85
2022/03/18 14:18:14;;;;;;;5.88;5.28;;;;;;;11.52;20.93;101482.13;6302547;22;19995;-86
2022/03/18 14:20:52;;;;;;;9.18;6.75;;;;;;;12.23;20.76;101615.19;6303473;22;20003;-86
2022/03/18 14:23:19;;;;;;;7.00;6.20;;;;;;;12.15;21.02;101614.19;6294717;22;19999;-86
2022/03/18 14:25:45;;;;;;;6.65;5.53;;;;;;;12.29;21.64;101619.09;6278996;22;19995;-86
2022/03/18 14:28:26;;;;;;;5.45;4.78;;;;;;;12.31;21.76;101590.66;6306595;22;20014;-86
2022/03/18 14:30:51;;;;;;;6.30;5.35;;;;;;;12.14;21.04;101597.47;6306010;22;20066;-86
2022/03/18 14:33:20;;;;;;;8.15;5.38;;;;;;;12.05;21.25;101591.19;6306238;22;20029;-85
2022/03/18 14:35:46;;;;;;;7.13;6.35;;;;;;;12.01;21.70;101605.69;6305501;22;20002;-86
2022/03/18 14:38:12;;;;;;;7.60;5.72;;;;;;;11.49;21.70;101529.19;6277817;22;20006;-86
2022/03/18 14:40:38;;;;;;;7.25;5.22;;;;;;;12.15;21.64;101654.75;6278476;22;20353;-85
2022/03/18 14:43:05;;;;;;;8.05;6.13;;;;;;;12.19;21.45;101629.69;6277877;22;20003;-86
2022/03/18 14:45:32;;;;;;;10.18;6.78;;;;;;;11.99;21.73;101586.44;6277237;22;20003;-86
2022/03/18 14:47:58;;;;;;;6.75;5.57;;;;;;;11.97;21.68;101590.22;6278608;22;20411;-86
2022/03/18 14:50:24;;;;;;;7.45;5.07;;;;;;;11.79;22.01;101592.66;6279309;22;20003;-86
2022/03/18 14:52:49;;;;;;;5.97;5.20;;;;;;;11.58;21.87;101594.50;6306654;22;20045;-86
2022/03/18 14:58:01;;;;;;;6.88;5.57;;;;;;;11.16;21.70;101623.69;6313296;22;20010;-88
2022/03/18 15:00:27;;;;;;;6.32;5.00;;;;;;;10.44;22.39;101534.66;6281265;22;20452;-88
2022/03/18 15:02:52;;;;;;;9.25;7.22;;;;;;;10.43;22.58;101546.19;6307064;22;20121;-88
2022/03/18 15:05:18;;;;;;;10.18;7.45;;;;;;;10.12;22.51;101531.13;6277947;22;20373;-89
2022/03/18 15:07:45;;;;;;;8.70;6.93;;;;;;;10.54;22.88;101587.53;6305713;22;20070;-88
2022/03/18 15:10:11;;;;;;;7.88;5.82;;;;;;;10.70;22.65;101640.75;6305650;22;20010;-86
2022/03/18 15:12:36;;;;;;;8.50;6.82;;;;;;;9.84;23.13;101538.69;6278278;22;20022;-86
2022/03/18 15:15:03;;;;;;;9.70;7.50;;;;;;;9.91;23.35;101554.84;6278621;22;19995;-87
2022/03/18 15:17:29;;;;;;;13.05;9.38;;;;;;;10.40;23.61;101643.25;6305964;22;20070;-87
2022/03/18 15:19:55;;;;;;;12.82;8.40;;;;;;;9.56;23.68;101531.28;6278328;22;20031;-87
2022/03/18 15:22:21;;;;;;;9.95;7.50;;;;;;;9.93;24.12;101600.41;6277956;22;20464;-87
2022/03/18 15:24:47;;;;;;;10.20;8.27;;;;;;;10.05;23.35;101646.09;6277906;22;19999;-87
2022/03/18 15:27:14;;;;;;;12.27;9.30;;;;;;;9.84;24.08;101660.03;6305828;22;20082;-87
2022/03/18 15:29:40;;;;;;;12.68;9.23;;;;;;;9.75;24.16;101644.94;6278050;22;20027;-87
2022/03/18 15:32:08;;;;;;;10.93;8.05;;;;;;;9.74;24.31;101653.81;6278035;22;20018;-87
2022/03/18 15:34:34;;;;;;;9.75;6.78;;;;;;;9.69;24.20;101649.88;6277950;22;20011;-88
2022/03/18 15:37:00;;;;;;;8.18;6.20;;;;;;;9.32;24.31;101620.22;6277759;22;20501;-87
2022/03/18 15:39:26;;;;;;;10.70;7.05;;;;;;;9.19;24.47;101633.53;6278085;22;20002;-90
2022/03/18 15:41:54;;;;;;;11.93;8.25;;;;;;;8.55;24.77;101523.34;6278004;22;19996;-87
2022/03/18 15:44:20;;;;;;;10.45;7.50;;;;;;;9.24;24.84;101655.94;6277492;22;19996;-89
2022/03/18 15:46:47;;;;;;;10.65;7.75;;;;;;;9.16;24.95;101652.19;6304569;22;20073;-89
2022/03/18 15:49:14;;;;;;;13.98;11.25;;;;;;;9.10;25.19;101661.41;6304867;22;20010;-89
2022/03/18 15:51:40;;;;;;;11.38;8.43;;;;;;;9.05;24.95;101668.84;6305076;22;20052;-88
2022/03/18 15:54:08;;;;;;;9.38;6.63;;;;;;;8.08;25.25;101547.91;6304527;22;20011;-88
2022/03/18 15:56:38;;;;;;;11.13;6.50;;;;;;;7.98;25.17;101555.63;6303866;22;20053;-88
2022/03/18 15:59:08;;;;;;;9.60;6.72;;;;;;;8.65;25.45;101678.84;6276436;22;19992;-89
2022/03/18 16:01:35;;;;;;;12.43;9.70;;;;;;;8.51;25.92;101681.66;6276234;22;20010;-89
2022/03/18 16:04:00;;;;;;;11.05;8.30;;;;;;;8.46;25.74;101687.25;6276053;22;20445;-89
2022/03/18 16:06:25;;;;;;;10.15;8.20;;;;;;;7.71;25.92;101591.81;6277711;22;20113;-89
2022/03/18 16:08:53;;;;;;;11.20;8.20;;;;;;;8.35;26.10;101691.63;6278327;22;20440;-89
2022/03/18 16:11:19;;;;;;;16.45;11.75;;;;;;;8.01;26.44;101670.31;6304822;22;19995;-89
2022/03/18 16:13:44;;;;;;;19.85;13.10;;;;;;;7.31;26.55;101563.06;6278065;22;20033;-90
2022/03/18 16:16:13;;;;;;;13.13;9.98;;;;;;;7.97;26.83;101693.34;6278108;22;19999;-90
2022/03/18 16:18:38;;;;;;;14.00;9.27;;;;;;;7.93;26.98;101673.47;6278183;22;20064;-89
2022/03/18 16:21:04;;;;;;;13.60;8.60;;;;;;;7.54;26.64;101613.19;6278063;22;20368;-89
2022/03/18 16:23:31;;;;;;;13.80;8.43;;;;;;;7.92;27.13;101698.09;6278120;22;19999;-89
2022/03/18 16:25:57;;;;;;;12.05;8.32;;;;;;;7.34;27.10;101615.41;6305482;22;20052;-90
2022/03/18 16:28:22;;;;;;;14.25;9.95;;;;;;;7.52;26.87;101658.00;6277822;22;20294;-89
2022/03/18 16:30:50;;;;;;;18.83;11.50;;;;;;;7.68;27.19;101699.81;6305142;22;20002;-89
2022/03/18 16:33:16;;;;;;;12.57;9.00;;;;;;;7.83;26.96;101734.72;6277957;22;20062;-89
2022/03/18 16:35:42;;;;;;;14.25;9.88;;;;;;;7.69;26.89;101740.09;6277508;22;20064;-89
2022/03/18 16:38:08;;;;;;;12.25;8.85;;;;;;;7.24;27.32;101692.34;6279446;22;19999;-89
2022/03/18 16:40:37;;;;;;;10.02;7.95;;;;;;;7.65;27.76;101750.00;6279911;22;20417;-89
2022/03/18 16:43:03;;;;;;;10.70;7.93;;;;;;;7.27;27.92;101687.72;6279839;22;19997;-89
2022/03/18 16:49:23;;;;;;;11.45;8.68;;;;;;;7.55;27.51;101746.31;6307331;22;19995;-90
2022/03/18 16:51:01;;;;;;;13.38;10.27;;;;;;;7.41;28.03;101733.22;6307176;22;20011;-89
2022/03/18 16:53:26;;;;;;;13.98;10.65;;;;;;;7.27;27.99;101724.50;6279762;22;20003;-89
2022/03/18 16:55:57;;;;;;;13.15;10.05;;;;;;;7.58;28.02;101772.38;6279141;22;19999;-90
2022/03/18 16:58:23;;;;;;;14.48;10.73;;;;;;;5.87;28.10;101494.09;6306765;22;20076;-89
2022/03/18 17:00:48;;;;;;;14.38;10.13;;;;;;;7.42;28.26;101766.47;6279768;22;20352;-89
2022/03/18 17:03:14;;;;;;;16.83;12.10;;;;;;;7.16;28.47;101737.50;6279774;22;19999;-89
2022/03/18 17:05:41;;;;;;;12.98;11.57;;;;;;;7.35;28.82;101797.56;6307006;22;20042;-90
2022/03/18 17:08:06;;;;;;;11.95;9.20;;;;;;;6.43;28.48;101647.81;6279651;22;20060;-90
2022/03/18 17:10:32;;;;;;;12.70;10.43;;;;;;;7.01;28.37;101770.06;6279606;22;20003;-89
2022/03/18 17:12:58;;;;;;;12.75;9.30;;;;;;;5.37;29.04;101501.66;6279797;22;20002;-89
2022/03/18 17:15:23;;;;;;;14.73;11.00;;;;;;;6.62;29.13;101707.81;6307161;22;20074;-90
2022/03/18 17:17:49;;;;;;;16.25;10.60;;;;;;;6.48;28.98;101694.75;6279492;22;20005;-89
2022/03/18 17:20:14;;;;;;;22.52;13.48;;;;;;;6.67;28.67;101745.97;6279727;22;20014;-89
2022/03/18 17:22:41;;;;;;;21.75;13.63;;;;;;;7.10;29.22;101790.47;6279686;22;19999;-90
2022/03/18 17:25:07;;;;;;;14.60;11.35;;;;;;;6.99;29.07;101775.41;6279775;22;19999;-90
2022/03/18 17:27:33;;;;;;;11.02;9.48;;;;;;;5.88;29.31;101606.72;6279710;22;20003;-90
2022/03/18 17:29:58;;;;;;;12.05;9.13;;;;;;;6.83;29.08;101792.25;6306798;22;20509;-89
2022/03/18 17:32:24;;;;;;;12.93;9.82;;;;;;;6.71;28.82;101762.38;6306994;22;19999;-90
2022/03/18 17:34:50;;;;;;;14.60;9.27;;;;;;;6.34;29.42;101716.63;6279652;22;19999;-90
2022/03/18 17:37:15;;;;;;;12.13;10.05;;;;;;;6.05;29.57;101713.22;6279812;22;20049;-90
2022/03/18 17:39:41;;;;;;;12.82;10.40;;;;;;;6.08;29.32;101702.53;6279549;22;19998;-89
2022/03/18 17:42:07;;;;;;;14.32;10.40;;;;;;;6.35;29.63;101752.41;6279327;22;20074;-90
2022/03/18 17:44:34;;;;;;;13.48;10.68;;;;;;;6.01;29.24;101680.25;6279318;22;20071;-90
2022/03/18 17:47:02;;;;;;;14.63;9.57;;;;;;;6.49;29.37;101783.88;6279395;22;19996;-90
2022/03/18 17:49:28;;;;;;;16.80;12.60;;;;;;;5.85;29.67;101666.38;6279526;22;20003;-90
2022/03/18 17:51:54;;;;;;;12.98;9.57;;;;;;;6.40;29.52;101789.72;6279786;22;20490;-89
2022/03/18 17:54:19;;;;;;;18.10;13.27;;;;;;;6.19;29.59;101746.47;6279474;22;20003;-90
2022/03/18 17:56:47;;;;;;;13.98;11.13;;;;;;;6.61;29.87;101832.97;6279880;22;20078;-89
2022/03/18 17:59:13;;;;;;;14.85;11.50;;;;;;;5.96;29.92;101724.28;6279354;22;19995;-89
2022/03/18 18:01:44;;;;;;;13.35;10.35;;;;;;;6.41;29.62;101804.50;6279529;22;20031;-89
2022/03/18 18:04:11;;;;;;;15.30;11.77;;;;;;;6.61;30.01;101824.25;6279695;22;20352;-90
2022/03/18 18:06:38;;;;;;;14.05;10.73;;;;;;;6.65;29.46;101831.00;6279401;22;20025;-90
2022/03/18 18:09:10;;;;;;;13.40;10.43;;;;;;;5.93;29.89;101714.81;6306633;22;19999;-89
2022/03/18 18:11:37;;;;;;;14.95;11.73;;;;;;;5.92;29.87;101718.34;6279388;22;20436;-90
2022/03/18 18:14:05;;;;;;;14.77;10.68;;;;;;;5.75;29.87;101742.97;6306579;22;20003;-89
2022/03/18 18:16:34;;;;;;;18.83;12.38;;;;;;;6.22;29.50;101794.31;6279582;22;20029;-90
2022/03/18 18:21:55;;;;;;;13.85;10.63;;;;;;;6.06;29.84;101764.72;6306838;22;19992;-90
2022/03/18 18:21:56;;;;;;;16.13;13.20;;;;;;;5.68;29.65;101723.31;6306455;22;19999;-90
2022/03/18 18:24:21;;;;;;;18.77;13.93;;;;;;;6.48;30.01;101855.66;6279448;22;20432;-90
2022/03/18 18:26:47;;;;;;;17.48;13.50;;;;;;;5.64;29.90;101727.03;6306554;22;19995;-90
2022/03/18 18:29:12;;;;;;;18.83;14.17;;;;;;;6.34;29.82;101824.19;6279079;22;20023;-90
2022/03/18 18:31:37;;;;;;;17.50;14.17;;;;;;;5.67;30.33;101733.88;6279053;22;20010;-90
2022/03/18 18:34:03;;;;;;;16.55;12.48;;;;;;;6.22;30.12;101844.16;6279081;22;20003;-91
2022/03/18 18:36:28;;;;;;;15.23;11.30;;;;;;;5.41;30.18;101715.31;6306814;22;20022;-90
2022/03/18 18:38:54;;;;;;;20.30;14.20;;;;;;;5.52;30.58;101738.25;6279206;22;19998;-90
2022/03/18 18:41:19;;;;;;;22.77;14.30;;;;;;;5.50;30.54;101724.41;6279166;22;20003;-90
2022/03/18 18:43:48;;;;;;;24.13;16.33;;;;;;;5.43;30.20;101731.78;6279119;22;20091;-90
2022/03/18 18:46:14;;;;;;;20.20;14.07;;;;;;;5.24;30.81;101718.09;6279348;22;20003;-89
2022/03/18 18:48:39;;;;;;;22.07;14.50;;;;;;;6.02;30.53;101828.78;6279346;22;20468;-90
2022/03/18 18:51:09;;;;;;;28.30;16.83;;;;;;;5.47;30.89;101766.50;6279184;22;20003;-90